Barlow, Alabama
Current Conditions -  °F | °C
As of 3:58 PM on Monday 20 Oct 2014 (Local Time) from KMEI Reporting Station
Clear Clear  
Wind Chill: 75°   Ceiling: Unl
Heat Index: 75°   Visibility: 10mi
Dew Point: 47°   Wind: 5mph
Humidity: 37%   Direction: 360°N
Pressure: 30.01"   Gusts: NA
Location:  31.6272°N, 88.354°W
Report Text: KMEI 202058Z 36004KT 10SM CLR 24/08 A3001 RMK AO2 SLP158 T02390083 56017
Loading
Personal Weather Stations






























Interactive Weather Map
Tropical Storm Tracking
New forecast layout! Learn more

10-Day Weather Forecast

Advertisements
Track Severe Weather on mobile